createdAt,value
2018-02-03T00:09:51.615Z,11.93
2018-02-03T00:12:17.886Z,11.88
2018-02-03T00:14:44.115Z,10.47
2018-02-03T00:17:10.357Z,10.93
2018-02-03T00:19:36.690Z,12.47
2018-02-03T00:22:03.689Z,13.80
2018-02-03T00:24:29.914Z,15.87
2018-02-03T00:26:56.985Z,12.93
2018-02-03T00:29:23.162Z,12.87
2018-02-03T00:31:50.053Z,18.80
2018-02-03T00:34:16.243Z,16.10
2018-02-03T00:36:42.432Z,13.10
2018-02-03T00:39:08.607Z,12.20
2018-02-03T00:41:35.018Z,14.20
2018-02-03T00:44:02.463Z,11.97
2018-02-03T00:46:28.686Z,14.83
2018-02-03T00:48:56.494Z,13.33
2018-02-03T00:51:22.680Z,13.80
2018-02-03T00:53:49.262Z,15.33
2018-02-03T00:56:15.433Z,19.10
2018-02-03T00:58:41.641Z,19.23
2018-02-03T01:01:08.521Z,18.27
2018-02-03T01:03:34.670Z,17.67
2018-02-03T01:06:00.893Z,14.60
2018-02-03T01:08:27.895Z,18.50
2018-02-03T01:10:54.072Z,16.90
2018-02-03T01:13:21.228Z,13.70
2018-02-03T01:15:48.586Z,15.23
2018-02-03T01:18:14.782Z,16.15
2018-02-03T01:20:40.936Z,15.33
2018-02-03T01:23:07.890Z,18.73
2018-02-03T01:25:34.058Z,18.00
2018-02-03T01:28:00.480Z,15.27
2018-02-03T01:30:26.646Z,20.93
2018-02-03T01:32:53.644Z,18.90
2018-02-03T01:35:19.787Z,14.40
2018-02-03T01:37:45.978Z,21.85
2018-02-03T01:40:12.188Z,14.70
2018-02-03T01:42:39.099Z,21.23
2018-02-03T01:45:05.338Z,16.73
2018-02-03T01:47:43.804Z,17.08
2018-02-03T01:50:09.987Z,17.90
2018-02-03T01:52:36.239Z,18.87
2018-02-03T01:55:04.021Z,16.40
2018-02-03T01:57:30.194Z,18.00
2018-02-03T01:59:57.214Z,19.05
2018-02-03T02:02:25.138Z,19.67
2018-02-03T02:04:52.070Z,21.87
2018-02-03T02:07:18.230Z,17.85
2018-02-03T02:09:45.155Z,24.63
2018-02-03T02:12:11.302Z,17.23
2018-02-03T02:14:38.219Z,17.92
2018-02-03T02:17:04.382Z,16.75
2018-02-03T02:19:30.600Z,18.95
2018-02-03T02:21:56.706Z,17.80
2018-02-03T02:24:22.922Z,18.77
2018-02-03T02:26:49.106Z,17.52
2018-02-03T02:29:15.900Z,15.68
2018-02-03T02:31:42.960Z,15.63
2018-02-03T02:34:10.783Z,16.50
2018-02-03T02:36:37.025Z,21.62
2018-02-03T02:39:03.239Z,19.33
2018-02-03T02:41:29.456Z,20.70
2018-02-03T02:43:55.601Z,19.70
2018-02-03T02:46:21.911Z,19.02
2018-02-03T02:48:48.081Z,18.92
2018-02-03T02:51:14.289Z,22.33
2018-02-03T02:53:40.458Z,21.15
2018-02-03T02:56:06.669Z,22.92
2018-02-03T02:58:32.866Z,17.25
2018-02-03T03:01:00.809Z,20.12
2018-02-03T03:03:27.901Z,20.77
2018-02-03T03:05:55.181Z,19.65
2018-02-03T03:08:21.697Z,17.10
2018-02-03T03:10:48.272Z,17.12
2018-02-03T03:13:15.202Z,19.25
2018-02-03T03:15:41.368Z,20.37
2018-02-03T03:18:07.635Z,17.12
2018-02-03T03:20:33.802Z,19.52
2018-02-03T03:23:01.041Z,19.62
2018-02-03T03:25:28.502Z,19.50
2018-02-03T03:27:54.665Z,17.70
2018-02-03T03:30:20.912Z,19.87
2018-02-03T03:32:47.102Z,21.50
2018-02-03T03:35:15.109Z,18.70
2018-02-03T03:37:41.301Z,18.35
2018-02-03T03:40:08.260Z,18.70
2018-02-03T03:42:35.436Z,21.87
2018-02-03T03:45:01.662Z,18.65
2018-02-03T03:47:27.861Z,20.73
2018-02-03T03:49:55.869Z,17.65
2018-02-03T03:52:22.119Z,20.40
2018-02-03T03:54:48.285Z,21.23
2018-02-03T03:57:15.181Z,24.70
2018-02-03T03:59:42.367Z,14.00
2018-02-03T04:02:08.599Z,15.77
2018-02-03T04:04:35.825Z,18.40
2018-02-03T04:07:01.977Z,18.08
2018-02-03T04:09:28.929Z,15.75
2018-02-03T04:12:10.759Z,16.93
2018-02-03T04:14:36.924Z,20.10
2018-02-03T04:17:03.609Z,24.03
2018-02-03T04:19:30.162Z,21.33
2018-02-03T04:21:57.410Z,20.75
2018-02-03T04:24:23.609Z,14.00
2018-02-03T04:26:51.416Z,16.98
2018-02-03T04:29:17.582Z,17.35
2018-02-03T04:31:44.568Z,15.90
2018-02-03T04:34:10.741Z,19.77
2018-02-03T04:36:36.929Z,19.60
2018-02-03T04:39:03.184Z,17.77
2018-02-03T04:41:29.353Z,18.37
2018-02-03T04:43:55.591Z,16.40
2018-02-03T04:56:07.527Z,19.60
2018-02-03T04:58:34.599Z,22.05
2018-02-03T05:01:01.565Z,23.85
2018-02-03T05:03:27.774Z,19.30
2018-02-03T05:05:55.359Z,22.92
2018-02-03T05:08:22.901Z,19.10
2018-02-03T05:10:50.174Z,17.57
2018-02-03T05:13:17.049Z,19.08
2018-02-03T05:15:43.997Z,18.52
2018-02-03T05:18:10.264Z,24.50
2018-02-03T05:20:36.490Z,18.20
2018-02-03T05:23:02.648Z,18.00
2018-02-03T05:25:29.878Z,21.17
2018-02-03T05:27:56.804Z,21.40
2018-02-03T05:30:22.982Z,16.92
2018-02-03T05:32:49.173Z,13.82
2018-02-03T05:35:15.662Z,16.08
2018-02-03T05:37:41.858Z,18.50
2018-02-03T05:40:08.576Z,14.10
2018-02-03T05:42:34.800Z,16.93
2018-02-03T05:45:03.846Z,15.00
2018-02-03T05:47:30.046Z,15.17
2018-02-03T05:49:56.986Z,13.50
2018-02-03T05:52:23.918Z,15.70
2018-02-03T05:54:50.128Z,16.30
2018-02-03T05:57:16.334Z,12.73
2018-02-03T06:09:32.561Z,14.57
2018-02-03T06:11:59.445Z,17.57
2018-02-03T06:14:25.623Z,15.48
2018-02-03T06:16:53.906Z,18.75
2018-02-03T06:19:20.102Z,17.37
2018-02-03T06:21:47.248Z,20.60
2018-02-03T06:24:13.421Z,16.98
2018-02-03T06:26:39.610Z,21.00
2018-02-03T06:29:06.061Z,20.30
2018-02-03T06:31:32.696Z,21.87
2018-02-03T06:34:00.954Z,23.20
2018-02-03T06:36:27.142Z,20.30
2018-02-03T06:38:54.171Z,24.45
2018-02-03T06:41:21.296Z,25.67
2018-02-03T06:53:32.532Z,20.95
2018-02-03T06:55:59.536Z,20.08
2018-02-03T06:58:27.507Z,19.45
2018-02-03T07:00:53.998Z,24.73
2018-02-03T07:03:20.946Z,23.70
2018-02-03T07:05:47.099Z,30.23
2018-02-03T07:17:58.361Z,24.45
2018-02-03T07:20:25.452Z,22.83
2018-02-03T07:22:51.740Z,22.00
2018-02-03T07:25:17.989Z,21.42
2018-02-03T07:27:45.085Z,15.73
2018-02-03T07:30:12.129Z,15.93
2018-02-03T07:32:38.399Z,15.60
2018-02-03T07:35:05.641Z,16.62
2018-02-03T07:37:31.827Z,16.50
2018-02-03T07:39:58.940Z,17.03
2018-02-03T07:42:25.185Z,18.48
2018-02-03T07:44:51.367Z,15.33
2018-02-03T07:47:18.604Z,13.97
2018-02-03T07:59:31.225Z,18.42
2018-02-03T08:01:57.447Z,14.40
2018-02-03T08:04:24.749Z,15.45
2018-02-03T08:06:50.999Z,26.30
2018-02-03T08:09:18.835Z,24.10
2018-02-03T08:11:45.684Z,16.70
2018-02-03T08:14:11.872Z,10.07
2018-02-03T08:16:38.090Z,17.50
2018-02-03T08:19:04.397Z,13.67
2018-02-03T08:21:30.705Z,13.10
2018-02-03T08:23:56.953Z,10.30
2018-02-03T08:26:23.252Z,11.57
2018-02-03T08:28:50.278Z,10.07
2018-02-03T08:31:17.110Z,17.73
2018-02-03T08:33:43.389Z,8.63
2018-02-03T08:36:10.515Z,14.43
2018-02-03T08:38:36.739Z,12.73
2018-02-03T08:41:03.976Z,11.10
2018-02-03T08:43:30.167Z,14.50
2018-02-03T08:45:58.247Z,14.17
2018-02-03T08:48:24.503Z,10.87
2018-02-03T08:50:50.736Z,16.50
2018-02-03T08:53:17.148Z,11.50
2018-02-03T08:55:43.883Z,16.13
2018-02-03T08:58:11.599Z,12.80
2018-02-03T09:00:38.800Z,11.30
2018-02-03T09:03:06.344Z,13.07
2018-02-03T09:05:32.577Z,11.30
2018-02-03T09:07:59.574Z,10.33
2018-02-03T09:10:25.809Z,12.03
2018-02-03T09:12:52.018Z,7.37
2018-02-03T09:15:18.292Z,10.50
2018-02-03T09:17:44.859Z,10.47
2018-02-03T09:20:11.997Z,11.97
2018-02-03T09:22:38.256Z,8.87
2018-02-03T09:25:04.438Z,7.83
2018-02-03T09:27:31.696Z,20.03
2018-02-03T09:29:57.904Z,7.03
2018-02-03T09:32:25.926Z,15.43
2018-02-03T09:34:52.542Z,8.23
2018-02-03T09:37:18.728Z,9.97
2018-02-03T09:39:44.923Z,11.20
2018-02-03T09:42:11.842Z,6.30
2018-02-03T09:44:38.082Z,8.10
2018-02-03T09:47:05.006Z,5.40
2018-02-03T09:49:31.346Z,7.07
2018-02-03T09:51:58.569Z,15.93
2018-02-03T09:54:25.248Z,9.20
2018-02-03T09:56:52.410Z,9.63
2018-02-03T09:59:19.674Z,8.47
2018-02-03T10:01:47.148Z,6.93
2018-02-03T10:04:13.388Z,6.23
2018-02-03T10:06:39.614Z,5.60
2018-02-03T10:09:06.387Z,9.53
2018-02-03T10:11:32.632Z,10.30
2018-02-03T10:14:00.758Z,6.60
2018-02-03T10:16:27.765Z,10.30
2018-02-03T10:18:54.766Z,10.87
2018-02-03T10:21:22.476Z,4.10
2018-02-03T10:23:49.430Z,9.20
2018-02-03T10:26:16.347Z,4.80
2018-02-03T10:28:42.574Z,12.23
2018-02-03T10:31:09.138Z,6.60
2018-02-03T10:33:35.927Z,4.40
2018-02-03T10:36:02.158Z,4.73
2018-02-03T10:38:29.308Z,4.30
2018-02-03T10:40:55.557Z,5.90
2018-02-03T10:43:21.788Z,8.60
2018-02-03T10:45:48.011Z,6.57
2018-02-03T10:48:14.231Z,5.63
2018-02-03T10:50:42.395Z,6.70
2018-02-03T10:53:08.791Z,13.00
2018-02-03T10:55:35.749Z,4.50
2018-02-03T10:58:01.940Z,6.93
2018-02-03T11:00:34.274Z,6.70
2018-02-03T11:03:01.013Z,8.10
2018-02-03T11:05:28.115Z,4.23
2018-02-03T11:07:55.111Z,5.70
2018-02-03T11:10:22.440Z,6.63
2018-02-03T11:12:49.446Z,4.10
2018-02-03T11:15:15.985Z,5.60
2018-02-03T11:17:43.321Z,8.90
2018-02-03T11:20:09.535Z,7.90
2018-02-03T11:22:35.739Z,10.03
2018-02-03T11:25:02.652Z,9.40
2018-02-03T11:27:30.038Z,8.97
2018-02-03T11:29:56.229Z,10.30
2018-02-03T11:32:23.485Z,10.30
2018-02-03T11:44:34.692Z,6.00
2018-02-03T11:47:02.906Z,6.80
2018-02-03T11:49:30.544Z,5.67
2018-02-03T11:51:57.102Z,7.43
2018-02-03T11:54:25.389Z,6.20
2018-02-03T11:56:52.381Z,6.73
2018-02-03T11:59:19.176Z,10.53
2018-02-03T12:01:46.349Z,5.10
2018-02-03T12:04:14.109Z,6.20
2018-02-03T12:06:41.338Z,6.80
2018-02-03T12:09:09.080Z,6.10
2018-02-03T12:11:35.285Z,7.60
2018-02-03T12:14:01.469Z,6.80
2018-02-03T12:16:27.671Z,10.97
2018-02-03T12:18:56.618Z,9.10
2018-02-03T12:21:24.414Z,8.20
2018-02-03T12:23:50.834Z,6.10
2018-02-03T12:26:18.943Z,6.10
2018-02-03T12:28:45.153Z,9.93
2018-02-03T12:31:11.958Z,12.63
2018-02-03T12:33:38.150Z,8.93
2018-02-03T12:45:55.259Z,9.57
2018-02-03T12:48:23.401Z,8.57
2018-02-03T12:50:50.488Z,9.43
2018-02-03T12:53:19.180Z,14.97
2018-02-03T12:55:45.398Z,12.20
2018-02-03T12:58:12.405Z,14.37
2018-02-03T13:00:38.699Z,10.23
2018-02-03T13:03:05.365Z,13.93
2018-02-03T13:05:31.528Z,8.23
2018-02-03T13:07:57.771Z,14.23
2018-02-03T13:10:24.676Z,9.47
2018-02-03T13:12:51.465Z,8.70
2018-02-03T13:15:17.643Z,11.73
2018-02-03T13:17:43.981Z,11.20
2018-02-03T13:20:10.266Z,8.27
2018-02-03T13:22:37.218Z,12.30
2018-02-03T13:25:04.282Z,8.83
2018-02-03T13:27:30.830Z,8.83
2018-02-03T13:29:57.014Z,9.00
2018-02-03T13:32:23.979Z,6.97
2018-02-03T13:34:50.151Z,8.50
2018-02-03T13:37:16.354Z,7.27
2018-02-03T13:39:42.569Z,13.43
2018-02-03T13:42:09.149Z,10.73
2018-02-03T13:44:35.338Z,13.63
2018-02-03T13:47:01.824Z,6.00
2018-02-03T13:49:27.991Z,8.40
2018-02-03T13:51:54.172Z,8.33
2018-02-03T13:54:20.383Z,8.40
2018-02-03T13:56:47.378Z,7.90
2018-02-03T13:59:14.297Z,10.33
2018-02-03T14:01:40.578Z,11.83
2018-02-03T14:04:06.782Z,8.47
2018-02-03T14:06:33.759Z,7.60
2018-02-03T14:08:59.950Z,7.40
2018-02-03T14:11:26.928Z,15.13
2018-02-03T14:13:53.190Z,14.67
2018-02-03T14:16:19.374Z,11.43
2018-02-03T14:18:45.627Z,11.70
2018-02-03T14:21:12.592Z,8.70
2018-02-03T14:23:38.818Z,9.53
2018-02-03T14:26:11.176Z,8.70
2018-02-03T14:28:39.330Z,8.57
2018-02-03T14:31:05.533Z,10.00
2018-02-03T14:33:32.521Z,11.90
2018-02-03T14:35:58.726Z,9.80
2018-02-03T14:38:25.057Z,11.70
2018-02-03T14:40:51.512Z,14.67
2018-02-03T14:43:17.714Z,10.10
2018-02-03T14:45:43.908Z,10.47
2018-02-03T14:48:11.083Z,16.33
2018-02-03T14:50:38.399Z,14.53
2018-02-03T14:53:04.596Z,8.40
2018-02-03T14:55:31.649Z,10.60
2018-02-03T14:57:57.876Z,10.80
2018-02-03T15:00:24.088Z,10.23
2018-02-03T15:02:51.726Z,8.77
2018-02-03T15:05:18.683Z,9.40
2018-02-03T15:07:46.029Z,11.87
2018-02-03T15:10:12.959Z,14.40
2018-02-03T15:12:39.258Z,14.23
2018-02-03T15:15:06.155Z,14.77
2018-02-03T15:17:32.402Z,11.77
2018-02-03T15:20:00.574Z,17.40
2018-02-03T15:22:26.821Z,17.53
2018-02-03T15:24:54.123Z,10.17
2018-02-03T15:27:21.998Z,8.83
2018-02-03T15:29:49.057Z,8.40
2018-02-03T15:32:16.440Z,12.90
2018-02-03T15:34:42.652Z,13.90
2018-02-03T15:37:09.578Z,9.40
2018-02-03T15:39:36.822Z,10.17
2018-02-03T15:42:03.072Z,8.00
2018-02-03T15:44:30.245Z,9.07
2018-02-03T15:46:57.275Z,9.00
2018-02-03T15:49:24.530Z,6.33
2018-02-03T15:51:52.542Z,5.37
2018-02-03T15:54:18.808Z,12.03
2018-02-03T15:56:46.464Z,11.63
2018-02-03T15:59:13.559Z,9.33
2018-02-03T16:01:40.282Z,7.00
2018-02-03T16:04:09.490Z,10.83
2018-02-03T16:06:36.592Z,10.00
2018-02-03T16:09:04.682Z,10.03
2018-02-03T16:11:34.249Z,11.60
2018-02-03T16:14:02.656Z,10.93
2018-02-03T16:16:32.581Z,6.80
2018-02-03T16:18:59.566Z,8.60
2018-02-03T16:21:25.900Z,7.57
2018-02-03T16:23:52.882Z,7.53
2018-02-03T16:26:19.724Z,10.73
2018-02-03T16:28:45.939Z,8.53
2018-02-03T16:31:13.077Z,9.80
2018-02-03T16:33:41.087Z,12.20
2018-02-03T16:36:08.862Z,15.07
2018-02-03T16:38:35.957Z,10.47
2018-02-03T16:41:02.674Z,14.77
2018-02-03T16:43:29.739Z,8.30
2018-02-03T16:45:56.386Z,11.50
2018-02-03T16:48:24.429Z,10.10
2018-02-03T16:50:52.100Z,13.07
2018-02-03T16:53:19.143Z,11.50
2018-02-03T16:55:46.913Z,10.00
2018-02-03T16:58:15.296Z,10.10
2018-02-03T17:00:44.888Z,10.90
2018-02-03T17:03:11.843Z,10.43
2018-02-03T17:05:40.519Z,13.00
2018-02-03T17:08:08.178Z,11.60
2018-02-03T17:10:35.060Z,8.17
2018-02-03T17:13:01.687Z,11.20
2018-02-03T17:15:28.010Z,9.70
2018-02-03T17:17:54.433Z,9.40
2018-02-03T17:20:20.679Z,13.40
2018-02-03T17:22:47.944Z,11.97
2018-02-03T17:25:17.914Z,13.30
2018-02-03T17:27:44.986Z,15.33
2018-02-03T17:30:13.897Z,17.43
2018-02-03T17:32:41.133Z,13.33
2018-02-03T17:35:09.775Z,19.33
2018-02-03T17:37:43.110Z,29.70
2018-02-03T17:40:10.869Z,26.10
2018-02-03T17:42:38.638Z,24.80
2018-02-03T17:54:58.240Z,14.83
2018-02-03T17:57:31.487Z,13.07
2018-02-03T17:59:58.730Z,9.87
2018-02-03T18:02:27.003Z,12.70
2018-02-03T18:04:55.474Z,14.97
2018-02-03T18:07:25.197Z,13.37
2018-02-03T18:09:53.368Z,13.07
2018-02-03T18:12:23.280Z,18.37
2018-02-03T18:14:51.740Z,13.90
2018-02-03T18:17:19.058Z,18.73
2018-02-03T18:29:35.322Z,11.60
2018-02-03T18:32:02.799Z,15.13
2018-02-03T18:34:30.302Z,11.40
2018-02-03T18:36:58.278Z,13.07
2018-02-03T18:39:25.724Z,15.30
2018-02-03T18:41:52.262Z,11.33
2018-02-03T18:44:21.204Z,10.70
2018-02-03T18:46:47.409Z,16.60
2018-02-03T18:49:16.334Z,14.07
2018-02-03T18:51:42.550Z,17.27
2018-02-03T18:54:09.657Z,13.40
2018-02-03T18:56:37.361Z,11.63
2018-02-03T18:59:03.648Z,13.83
2018-02-03T19:01:31.535Z,10.47
2018-02-03T19:03:58.509Z,10.17
2018-02-03T19:06:26.251Z,10.53
2018-02-03T19:08:54.808Z,12.10
2018-02-03T19:11:21.844Z,11.10
2018-02-03T19:13:51.224Z,13.63
2018-02-03T19:16:18.194Z,11.23
2018-02-03T19:18:44.479Z,9.00
2018-02-03T19:21:11.789Z,9.97
2018-02-03T19:23:39.814Z,8.50
2018-02-03T19:26:06.631Z,11.23
2018-02-03T19:28:34.930Z,9.77
2018-02-03T19:31:03.818Z,10.10
2018-02-03T19:33:32.952Z,8.97
2018-02-03T19:36:00.419Z,10.82
2018-02-03T19:38:27.912Z,10.30
2018-02-03T19:40:54.171Z,11.98
2018-02-03T19:43:21.254Z,13.80
2018-02-03T19:45:47.480Z,8.88
2018-02-03T19:48:13.755Z,10.68
2018-02-03T19:50:42.488Z,13.65
2018-02-03T19:53:09.444Z,16.42
2018-02-03T20:05:25.739Z,11.90
2018-02-03T20:07:53.666Z,12.93
2018-02-03T20:20:09.897Z,12.50
2018-02-03T20:22:39.860Z,8.65
2018-02-03T20:25:06.950Z,8.10
2018-02-03T20:27:34.371Z,11.07
2018-02-03T20:30:00.932Z,11.82
2018-02-03T20:32:27.997Z,9.90
2018-02-03T20:34:57.069Z,7.50
2018-02-03T20:37:23.695Z,11.68
2018-02-03T20:39:49.917Z,8.68
2018-02-03T20:42:17.527Z,6.77
2018-02-03T20:44:43.720Z,9.60
2018-02-03T20:47:12.289Z,17.83
2018-02-03T20:49:38.834Z,10.80
2018-02-03T20:52:05.048Z,9.68
2018-02-03T20:54:32.083Z,9.88
2018-02-03T20:56:59.702Z,10.00
2018-02-03T20:59:25.941Z,9.57
2018-02-03T21:01:52.234Z,7.78
2018-02-03T21:04:18.445Z,9.13
2018-02-03T21:06:44.641Z,8.35
2018-02-03T21:09:11.563Z,9.70
2018-02-03T21:11:39.491Z,8.43
2018-02-03T21:14:06.399Z,7.78
2018-02-03T21:16:34.959Z,6.82
2018-02-03T21:19:01.966Z,12.80
2018-02-03T21:21:29.074Z,10.13
2018-02-03T21:23:56.074Z,8.68
2018-02-03T21:26:22.287Z,10.55
2018-02-03T21:28:48.849Z,13.90
2018-02-03T21:31:15.080Z,8.68
2018-02-03T21:43:27.137Z,8.32
2018-02-03T21:45:54.812Z,7.93
2018-02-03T21:48:21.562Z,9.27
2018-02-03T21:50:47.840Z,12.37
2018-02-03T21:53:14.362Z,11.30
2018-02-03T21:55:42.431Z,17.85
2018-02-03T21:58:09.556Z,9.82
2018-02-03T22:00:38.268Z,9.68
2018-02-03T22:03:04.500Z,8.32
2018-02-03T22:05:30.757Z,9.20
2018-02-03T22:07:57.601Z,8.80
2018-02-03T22:10:25.544Z,11.30
2018-02-03T22:12:51.808Z,11.38
2018-02-03T22:15:19.578Z,11.40
2018-02-03T22:27:39.801Z,7.75
2018-02-03T22:30:06.561Z,9.55
2018-02-03T22:32:34.535Z,10.27
2018-02-03T22:35:01.633Z,9.02
2018-02-03T22:37:31.655Z,11.02
2018-02-03T22:39:58.178Z,9.40
2018-02-03T22:42:27.314Z,8.90
2018-02-03T22:44:55.751Z,15.57
2018-02-03T22:47:23.266Z,10.52
2018-02-03T22:49:50.401Z,10.90
2018-02-03T22:52:18.227Z,9.70
2018-02-03T22:54:46.031Z,13.32
2018-02-03T22:57:13.392Z,10.30
2018-02-03T22:59:39.592Z,11.10
2018-02-03T23:02:08.459Z,10.85
2018-02-03T23:04:35.674Z,7.70
2018-02-03T23:07:06.024Z,10.10
2018-02-03T23:09:32.235Z,6.97
2018-02-03T23:11:58.801Z,6.10
2018-02-03T23:14:25.794Z,9.60
2018-02-03T23:16:52.038Z,10.30
2018-02-03T23:19:21.839Z,11.07
2018-02-03T23:21:48.061Z,10.93
2018-02-03T23:24:17.362Z,7.93
2018-02-03T23:26:44.517Z,9.75
2018-02-03T23:29:10.700Z,9.00
2018-02-03T23:31:37.888Z,8.85
2018-02-03T23:34:04.118Z,7.90
2018-02-03T23:36:30.965Z,15.82
2018-02-03T23:38:59.029Z,9.45
2018-02-03T23:41:25.228Z,8.13
2018-02-03T23:43:52.202Z,9.02
2018-02-03T23:46:19.423Z,7.82
2018-02-03T23:48:45.675Z,10.18
2018-02-03T23:51:13.335Z,16.23
2018-02-03T23:53:41.075Z,11.50
2018-02-03T23:56:07.628Z,10.15
2018-02-03T23:58:34.633Z,17.20
